Timeline UpdatesTrip UpdatesNews PostsPvt PostsTravel TipsAdmin PostsConv PostsFollowed PostsChat RequestsBlog PostsPNR Posts

Disclaimer
Search
 
 
Wed Aug 27, 2014 16:21:24 ISTHomeTrainsΣChainsAtlasPNRForumGalleryNewsFAQTripsMembersLoginFeedback
No Recent News for this Train
Other Trains in the News **new
Latest...
Experimental Stop provided at Pudukkad.
Fri Feb 21, 2014 (07:40PM)
⇐ Return Journey: Train# 16650

16649/Parashuram Express

Feb 21 2014 (7:39PM)
Change Departure Station:
Change Arrival Station:
Post a Train Travel TipPost a Train Travel Tip **new
Post a Comment/Question/Picture/VideoPost a Comment/Question/Picture/Video
Pantry/Catering
✓ Pantry Car Avbl
✓ Catering Avbl
RSA - Rake Sharing
Rake/Coach Composition
Loco SLR GS GS GS GS GS GS GS GS GS PC D1 C1 C2 F1 GS GS GS GS SLR
Loco
MAQ-SRR :ERS WDM 3A/ED WDM 3A/D SRR-NCJ: ED/RPM WAP 4
News    PNR    Forum    Time-Table    Availability    Fare Chart    Map    Arr/Dep History    Trips    Gallery    ΣChains    X/O    Timeline    
Travel Time: 13h 35m    45 halts    Distance: 632 km    Avg Speed: 46 km/hr
Type: Mail/Express
Zone: SR/Southern
Departs @ 04:50 (Avg 2m late)
Platform# 1
SMTWTFS
Mangalore Central/MAQ 
Arrives @ 18:25 (Avg 35m late)
Platform# 5
SMTWTFS
Trivandrum Central/TVC 

45 halts. 120 intermediate Stations between Mangalore Central and Trivandrum Central

Show ALL intermediate Stations  Show Old Time-Table

#CodeStation NameX/OArrivesAvgDepartsAvgHaltPFDay#KmSpeedElevZoneAddress
1MAQ»Mangalore Central (4)»  -04:50+2110.06114mSRMangalore 575001, Karnataka
2KGQKasaragod (3)X  05:35+805:36+91m--145.76918mSRTel: 04994 220800, Kerala
3KZEKanhangad (3)  05:56+1005:57+151m--168.85615mSRKanhangad, Kerala
4NLENileshwar (2)X  06:07+1506:08+151m--178.16012mSRNileswaram, Kerala
5PAYPayyanur (3)  06:28+1306:29+141m--198.1640mSRKannur District, Kerala
6PAZPayangadi (2)  06:40+1406:41+141m21109.86412mSRKannur District, Kerala
7KPQKannapuram (2)X  06:48+1606:49+171m21117.3339mSRKannur District, Kerala
8CANKannur Main (4)  07:15+707:20+135m31131.86514mSRKannur Tel: 0497 2705555, Kerala
9TLYThalassery (2)  07:39+1307:40+131m--1152.4629mSRKannur, Kerala
10MAHEMahe (2)  07:49+1507:50+151m--1161.76416mSRMahe, Puducherry
11BDJVadakara (2)X  08:02+1508:03+161m11174.68211mSRCalicut / Station Ph No : 0496-2524254, Kerala
12QLDKoyilandy (3)  08:19+1808:20+191m--1196.53611mSRQuilandi, Kerala
13CLTKozhikode Main (4)X  09:00+409:05+85m31220.84311mSRCalicut Tel: 0495 2701234, Kerala
14FKFerok (2)X  09:19+909:20+91m--1230.85119mSRFeroke, Kerala
15VLIVallikunnu (2)  09:32-09:33-1m--1241.04313mSRVallikkunnu, Kerala
16PGIParappangadi (2)  09:40+1109:41+121m--1246.06119mSRParappanangadi, Kerala
17TATanur (3)X  09:49+1309:50+131m--1254.15311mSRMalappuram, Kerala
18TIRTirur (3)  09:59+1210:00+131m21262.1489mSRTel: 0494 2422240, Kerala
19KTUKuttippuram (2)  10:19+1010:20+111m21277.17917mSRKuttippuram, Kerala
20PTBPattambi (2)X  10:34+1310:35+141m21295.62021mSRPattambi, Kerala
21SRRShoranur Junction (7)XO11:10+011:15+125m61307.15226mSRShoranur ph.no 0466-2222913, Kerala
22WKIWadakkanchery (2)  11:34+2511:35+261m11323.75840mSRWadackanchery, Kerala
23TCRThrissur (4)X  11:52+2711:54+282m11340.1586mSRThrissur Tel: 0487 2423150, Kerala
24PUKPudukkad (2)X  12:08+2912:09+301m--1353.66111mSRPudukad, Kerala
25IJKIrinjalakkuda (2)  12:19+3112:20+311m21363.84818mSRKalletumkara, Kerala
26CKIChalakkudy (3)  12:28+3012:29+311m11370.3339mSRPh: 0480- 2701368, Kerala
27DINRDivine Nagar (2)X  12:33+712:34+71m11372.57816mSRThrissur, Kerala
28AFKAngamaly for Kalady (3)  12:44+3412:45+351m21385.53716mSRPhone: 0484-2452340, Kerala
29AWYAluva (3)X  13:00+3013:02+302m11394.73112mSRPh: 0484-2624141, Kerala
30ERNErnakulam Town (North) (2)  13:35+1813:40+185m21411.5399mSRTel: 0484 2395198, Kerala
31TRTRThrippunithura (2)13:55+2313:56+231m--1421.2645mSRErnakulam, Kerala
32PVRDPiravom Road  14:14+2914:15+311m11440.36512mSRKottayam, Kerala
33ETMEttumanur (1)X  14:34+3914:35+401m11460.94228mSRKottayam, Kerala
34KTYMKottayam (3)  14:50+3914:53+403m11471.56715mSRTel: 0481 2563535, Kerala
35CGYChanganassery (3)X  15:09+4615:10+481m21489.35211mSRPh: 0481- 2420108, Kerala
36TRVLTiruvalla (2)X  15:19+4915:20+521m11497.23927mSRPh: 0469-2601314, Kerala
37CNGRChengannur (3)  15:34+5115:35+521m11506.3546mSRPh: 0479-2452340, Kerala
38MVLKMavelikara (3)X  15:49+5115:50+511m31518.84613mSRMavelikkara Ph: 0479-2302249, Kerala
39KYJKayamkulam Junction (5)  16:00+5016:02+502m41526.56311mSRAlappuzha Ph;0479-2442042, Kerala
40KPYKarunagappalli (2)X  16:15+5216:16+531m21540.25712mSRKollam Dist, Kerala
41STKTSasthamkotta (2)  16:24+5416:25+551m11547.8290mSRKollam Dist, Kerala
42QLNKollam Junction (6)X  17:05+3617:10+355m11567.37416mSRKollam 0474-2746194, Kerala
43PVUParavur (3)17:20+3917:21+391m--1579.78418mSRParavoor, Kerala
44VAKVarkala Sivagiri (3)X  17:29+4217:30+421m21590.97252mSREdava Kappil Road, Kerala
45KZKKazhakkuttam (3)X17:53+4517:54+451m--1618.66620mSRKulathoor ► Kazhakootam Road Kazhakootam PO Thiruvananthapuram, Kerala
46TVPThiruvananthapuram Pettah (2)  18:04+1318:05+131m11629.5718mSRTrivandrum Ph: 04712470181, Kerala
47TVC•Trivandrum Central (5)•X  18:25+3518:35+3610m51631.95412mSRThiruvananthapuram 695001, Kerala
48NYYNeyyattinkara  18:54+4218:55+461m--1649.17311mSRThiruvananthapuram, Kerala
49PASAParassalaX  19:04+5019:05+511m--1660.03145mSRParassala, Kerala
50KZTKulitturai  19:24+4319:25+451m--1669.94729mSRMarthandam, Tamil Nadu
51ERLEraniel  19:44+4119:45+411m--1684.72219mSRKanyakumari, Tamil Nadu
52NCJNagercoil Junction (4)  20:35+12---1703.0-22mSRNagercoil-629002, Tamil Nadu
Scroll to Top
Scroll to Bottom